createdAt,value
2023-01-11T00:00:40.925Z,75.98
2023-01-11T00:03:07.811Z,76.28
2023-01-11T00:05:40.524Z,76.42
2023-01-11T00:08:07.553Z,76.40
2023-01-11T00:10:34.463Z,76.34
2023-01-11T00:13:01.689Z,76.32
2023-01-11T00:15:28.618Z,75.98
2023-01-11T00:17:55.842Z,76.12
2023-01-11T00:20:22.724Z,76.39
2023-01-11T00:22:49.693Z,76.31
2023-01-11T00:25:16.646Z,76.19
2023-01-11T00:27:43.623Z,76.54
2023-01-11T00:30:11.380Z,76.44
2023-01-11T00:32:38.201Z,76.13
2023-01-11T00:35:05.380Z,75.71
2023-01-11T00:37:32.180Z,75.52
2023-01-11T00:39:58.990Z,75.49
2023-01-11T00:42:44.515Z,75.66
2023-01-11T00:45:43.724Z,75.55
2023-01-11T00:48:10.948Z,75.22
2023-01-11T00:50:38.712Z,74.75
2023-01-11T00:53:05.937Z,74.95
2023-01-11T00:55:32.851Z,74.54
2023-01-11T00:58:00.069Z,74.14
2023-01-11T01:00:27.016Z,74.04
2023-01-11T01:02:53.952Z,73.79
2023-01-11T01:05:20.752Z,73.19
2023-01-11T01:07:47.695Z,73.31
2023-01-11T01:10:15.508Z,73.26
2023-01-11T01:13:01.175Z,72.82
2023-01-11T01:15:28.150Z,72.80
2023-01-11T01:17:55.402Z,72.77
2023-01-11T01:20:23.281Z,72.51
2023-01-11T01:22:50.522Z,72.34
2023-01-11T01:25:17.708Z,72.16
2023-01-11T01:27:44.564Z,72.28
2023-01-11T01:30:12.356Z,72.33
2023-01-11T01:32:39.932Z,72.39
2023-01-11T01:35:07.265Z,72.37
2023-01-11T01:37:34.326Z,72.43
2023-01-11T01:40:01.122Z,72.70
2023-01-11T01:42:28.335Z,72.60
2023-01-11T01:45:00.917Z,72.32
2023-01-11T01:47:32.859Z,72.23
2023-01-11T01:50:02.496Z,72.40
2023-01-11T01:52:29.773Z,72.56
2023-01-11T01:54:59.282Z,72.32
2023-01-11T01:57:28.080Z,72.03
2023-01-11T01:59:55.809Z,72.54
2023-01-11T02:02:24.392Z,72.46
2023-01-11T02:04:51.295Z,72.73
2023-01-11T02:07:23.055Z,72.47
2023-01-11T02:10:05.510Z,72.49
2023-01-11T02:12:39.470Z,72.20
2023-01-11T02:15:08.909Z,72.33
2023-01-11T02:17:35.926Z,72.22
2023-01-11T02:20:13.187Z,72.43
2023-01-11T02:22:52.554Z,72.41
2023-01-11T02:25:41.031Z,72.55
2023-01-11T02:28:17.055Z,72.60
2023-01-11T02:30:59.739Z,72.24
2023-01-11T02:33:36.443Z,72.09
2023-01-11T02:46:23.860Z,71.66
2023-01-11T02:49:00.182Z,72.17
2023-01-11T02:52:09.472Z,71.97
2023-01-11T02:54:36.465Z,72.10
2023-01-11T02:57:03.453Z,72.48
2023-01-11T02:59:32.045Z,72.50
2023-01-11T03:01:59.862Z,72.30
2023-01-11T03:04:31.819Z,72.24
2023-01-11T03:07:12.161Z,72.34
2023-01-11T03:09:45.902Z,72.23
2023-01-11T03:12:47.716Z,71.93
2023-01-11T03:15:56.033Z,71.90
2023-01-11T03:18:31.944Z,71.81
2023-01-11T03:21:26.692Z,71.57
2023-01-11T03:24:12.295Z,71.47
2023-01-11T03:26:49.999Z,71.11
2023-01-11T03:29:20.941Z,71.52
2023-01-11T03:32:12.974Z,70.83
2023-01-11T03:34:52.172Z,70.56
2023-01-11T03:37:27.295Z,70.79
2023-01-11T03:40:04.589Z,70.50
2023-01-11T03:42:33.416Z,70.33
2023-01-11T03:45:00.935Z,70.27
2023-01-11T03:47:29.460Z,70.37
2023-01-11T03:50:07.843Z,70.49
2023-01-11T03:52:36.620Z,70.40
2023-01-11T03:55:04.699Z,70.29
2023-01-11T03:57:34.004Z,70.14
2023-01-11T04:00:01.019Z,70.04
2023-01-11T04:02:29.188Z,69.91
2023-01-11T04:04:56.228Z,69.75
2023-01-11T04:07:23.105Z,69.86
2023-01-11T04:09:49.994Z,69.66
2023-01-11T04:12:18.980Z,69.49
2023-01-11T04:14:45.872Z,69.64
2023-01-11T04:17:12.689Z,69.96
2023-01-11T04:19:40.165Z,69.65
2023-01-11T04:22:07.491Z,69.43
2023-01-11T04:24:34.433Z,69.16
2023-01-11T04:27:01.485Z,69.11
2023-01-11T04:29:29.693Z,69.30
2023-01-11T04:31:56.605Z,69.06
2023-01-11T04:34:23.534Z,69.24
2023-01-11T04:36:50.448Z,69.30
2023-01-11T04:39:17.609Z,69.39
2023-01-11T04:42:03.143Z,69.48
2023-01-11T04:44:29.997Z,69.56
2023-01-11T04:46:56.967Z,69.50
2023-01-11T04:49:23.912Z,69.47
2023-01-11T04:51:50.882Z,69.66
2023-01-11T04:54:17.827Z,69.52
2023-01-11T04:56:44.668Z,69.82
2023-01-11T04:59:11.666Z,69.71
2023-01-11T05:01:38.495Z,69.81
2023-01-11T05:04:05.265Z,69.64
2023-01-11T05:06:32.949Z,69.79
2023-01-11T05:09:00.469Z,69.90
2023-01-11T05:11:27.319Z,69.70
2023-01-11T05:13:54.278Z,69.58
2023-01-11T05:16:23.946Z,69.99
2023-01-11T05:18:52.615Z,69.90
2023-01-11T05:21:24.058Z,70.14
2023-01-11T05:23:50.925Z,70.15
2023-01-11T05:26:18.924Z,69.83
2023-01-11T05:28:46.338Z,69.79
2023-01-11T05:31:13.820Z,69.83
2023-01-11T05:33:40.875Z,69.98
2023-01-11T05:36:13.467Z,70.08
2023-01-11T05:38:40.364Z,69.99
2023-01-11T05:41:09.153Z,70.10
2023-01-11T05:43:56.664Z,70.19
2023-01-11T05:46:23.723Z,69.90
2023-01-11T05:48:50.712Z,69.63
2023-01-11T05:51:17.601Z,69.46
2023-01-11T05:53:44.990Z,69.83
2023-01-11T05:56:11.792Z,69.85
2023-01-11T05:58:38.629Z,69.53
2023-01-11T06:01:05.649Z,69.54
2023-01-11T06:03:32.584Z,69.57
2023-01-11T06:05:59.607Z,69.55
2023-01-11T06:08:26.902Z,69.62
2023-01-11T06:10:55.308Z,69.72
2023-01-11T06:13:32.784Z,69.19
2023-01-11T06:16:03.221Z,69.12
2023-01-11T06:18:31.497Z,69.38
2023-01-11T06:21:46.741Z,69.12
2023-01-11T06:24:14.115Z,69.24
2023-01-11T06:26:40.847Z,69.29
2023-01-11T06:29:07.665Z,69.24
2023-01-11T06:31:35.672Z,69.11
2023-01-11T06:34:02.472Z,68.78
2023-01-11T06:36:29.915Z,68.66
2023-01-11T06:38:56.772Z,68.38
2023-01-11T06:41:23.519Z,68.30
2023-01-11T06:43:50.486Z,68.80
2023-01-11T06:46:19.017Z,69.27
2023-01-11T06:48:46.124Z,69.39
2023-01-11T06:51:14.271Z,69.09
2023-01-11T06:53:41.754Z,69.09
2023-01-11T06:56:11.193Z,69.16
2023-01-11T06:58:38.486Z,69.12
2023-01-11T07:01:05.750Z,68.82
2023-01-11T07:03:32.839Z,68.33
2023-01-11T07:05:59.644Z,68.38
2023-01-11T07:08:26.585Z,68.17
2023-01-11T07:10:53.534Z,68.28
2023-01-11T07:13:20.405Z,68.26
2023-01-11T07:15:54.224Z,68.28
2023-01-11T07:18:21.737Z,68.20
2023-01-11T07:20:48.537Z,68.37
2023-01-11T07:23:15.351Z,68.30
2023-01-11T07:25:42.144Z,68.24
2023-01-11T07:28:09.626Z,67.76
2023-01-11T07:30:52.192Z,68.06
2023-01-11T07:33:23.982Z,67.85
2023-01-11T07:35:50.738Z,67.52
2023-01-11T07:38:17.641Z,67.25
2023-01-11T07:40:44.555Z,66.95
2023-01-11T07:43:14.623Z,67.10
2023-01-11T07:45:46.498Z,66.66
2023-01-11T07:48:14.001Z,66.85
2023-01-11T07:50:42.821Z,66.54
2023-01-11T07:53:11.156Z,65.54
2023-01-11T07:55:39.893Z,65.32
2023-01-11T07:58:07.898Z,65.85
2023-01-11T08:00:34.677Z,65.43
2023-01-11T08:03:02.284Z,64.90
2023-01-11T08:05:29.779Z,64.80
2023-01-11T08:07:56.578Z,65.40
2023-01-11T08:10:24.105Z,65.65
2023-01-11T08:13:09.946Z,65.31
2023-01-11T08:15:36.861Z,65.43
2023-01-11T08:18:04.944Z,65.49
2023-01-11T08:20:32.106Z,65.50
2023-01-11T08:23:02.303Z,65.59
2023-01-11T08:25:29.138Z,65.33
2023-01-11T08:27:56.201Z,64.89
2023-01-11T08:30:23.179Z,64.69
2023-01-11T08:32:50.105Z,64.43
2023-01-11T08:35:18.642Z,64.34
2023-01-11T08:37:45.633Z,64.80
2023-01-11T08:40:13.466Z,65.12
2023-01-11T08:42:40.725Z,65.09
2023-01-11T08:45:10.767Z,65.09
2023-01-11T08:47:37.893Z,65.28
2023-01-11T08:50:05.893Z,64.78
2023-01-11T08:52:32.751Z,64.60
2023-01-11T08:54:59.624Z,64.84
2023-01-11T08:57:26.503Z,65.20
2023-01-11T08:59:54.948Z,64.88
2023-01-11T09:02:21.735Z,65.39
2023-01-11T09:04:48.548Z,65.10
2023-01-11T09:07:15.441Z,65.02
2023-01-11T09:09:42.245Z,65.23
2023-01-11T09:12:09.394Z,64.52
2023-01-11T09:14:36.231Z,63.89
2023-01-11T09:17:03.400Z,63.62
2023-01-11T09:19:30.430Z,63.64
2023-01-11T09:21:58.437Z,63.95
2023-01-11T09:24:25.530Z,64.04
2023-01-11T09:26:53.362Z,63.49
2023-01-11T09:29:20.431Z,62.41
2023-01-11T09:31:47.459Z,62.02
2023-01-11T09:34:14.608Z,61.85
2023-01-11T09:36:41.556Z,61.99
2023-01-11T09:39:11.762Z,62.41
2023-01-11T09:41:48.195Z,62.71
2023-01-11T09:44:19.103Z,63.33
2023-01-11T09:46:50.655Z,63.67
2023-01-11T09:49:20.350Z,63.79
2023-01-11T09:51:48.357Z,63.92
2023-01-11T09:54:19.193Z,64.04
2023-01-11T09:56:54.949Z,63.91
2023-01-11T09:59:29.847Z,64.03
2023-01-11T10:02:08.047Z,63.68
2023-01-11T10:04:56.821Z,63.64
2023-01-11T10:07:43.673Z,63.47
2023-01-11T10:18:38.573Z,63.78
2023-01-11T10:19:37.358Z,63.74
2023-01-11T10:22:31.881Z,63.60
2023-01-11T10:25:01.610Z,63.81
2023-01-11T10:27:40.886Z,63.45
2023-01-11T10:30:49.454Z,63.18
2023-01-11T10:33:29.282Z,62.77
2023-01-11T10:36:36.891Z,62.67
2023-01-11T10:39:51.255Z,62.22
2023-01-11T10:42:26.392Z,61.42
2023-01-11T10:45:12.510Z,61.67
2023-01-11T10:47:55.548Z,61.57
2023-01-11T10:50:32.081Z,61.49
2023-01-11T10:53:06.317Z,61.87
2023-01-11T10:55:41.738Z,62.26
2023-01-11T10:58:53.907Z,61.92
2023-01-11T11:01:40.734Z,61.33
2023-01-11T11:04:20.006Z,60.98
2023-01-11T11:06:53.727Z,61.00
2023-01-11T11:09:46.988Z,61.34
2023-01-11T11:12:22.753Z,61.33
2023-01-11T11:15:02.551Z,61.37
2023-01-11T11:17:35.144Z,60.83
2023-01-11T11:20:15.123Z,60.42
2023-01-11T11:22:42.266Z,60.60
2023-01-11T11:25:27.514Z,60.66
2023-01-11T11:28:07.502Z,60.84
2023-01-11T11:30:45.433Z,61.02
2023-01-11T11:33:37.367Z,60.78
2023-01-11T11:36:09.564Z,60.80
2023-01-11T11:38:42.283Z,60.84
2023-01-11T11:41:14.211Z,61.03
2023-01-11T11:43:42.335Z,60.85
2023-01-11T11:46:22.812Z,60.80
2023-01-11T11:49:13.373Z,60.91
2023-01-11T11:51:40.315Z,60.88
2023-01-11T11:54:07.244Z,61.23
2023-01-11T11:56:34.873Z,61.38
2023-01-11T11:59:09.747Z,61.33
2023-01-11T12:01:39.696Z,61.49
2023-01-11T12:04:18.162Z,61.85
2023-01-11T12:07:12.552Z,62.05
2023-01-11T12:09:43.739Z,62.31
2023-01-11T12:12:18.818Z,62.53
2023-01-11T12:15:24.149Z,62.60
2023-01-11T12:17:51.178Z,62.93
2023-01-11T12:20:24.158Z,63.17
2023-01-11T12:23:08.180Z,63.06
2023-01-11T12:25:37.372Z,63.61
2023-01-11T12:28:14.195Z,63.94
2023-01-11T12:31:04.708Z,63.80
2023-01-11T12:34:04.342Z,63.70
2023-01-11T12:36:46.615Z,63.25
2023-01-11T12:39:30.891Z,63.18
2023-01-11T12:42:04.115Z,63.45
2023-01-11T12:44:52.585Z,63.34
2023-01-11T12:47:42.235Z,63.48
2023-01-11T12:50:56.034Z,63.60
2023-01-11T12:53:47.472Z,63.36
2023-01-11T12:56:33.835Z,63.01
2023-01-11T12:59:05.654Z,63.21
2023-01-11T13:01:54.371Z,63.07
2023-01-11T13:04:38.620Z,63.15
2023-01-11T13:07:15.478Z,63.05
2023-01-11T13:10:02.156Z,62.98
2023-01-11T13:12:35.855Z,63.08
2023-01-11T13:15:24.501Z,63.15
2023-01-11T13:18:14.675Z,63.04
2023-01-11T13:21:01.295Z,63.05
2023-01-11T13:23:42.003Z,63.05
2023-01-11T13:26:11.913Z,63.10
2023-01-11T13:28:40.137Z,63.45
2023-01-11T13:31:07.988Z,63.45
2023-01-11T13:33:34.810Z,63.29
2023-01-11T13:36:22.585Z,63.48
2023-01-11T13:38:53.585Z,63.87
2023-01-11T13:41:22.571Z,64.07
2023-01-11T13:43:58.569Z,64.08
2023-01-11T13:46:31.608Z,64.23
2023-01-11T13:49:13.422Z,64.73
2023-01-11T13:52:09.500Z,64.83
2023-01-11T13:54:47.402Z,64.97
2023-01-11T13:57:23.622Z,65.15
2023-01-11T13:59:53.174Z,65.65
2023-01-11T14:02:40.597Z,66.13
2023-01-11T14:05:13.218Z,66.31
2023-01-11T14:07:56.049Z,66.90
2023-01-11T14:11:01.970Z,67.04
2023-01-11T14:14:13.585Z,67.06
2023-01-11T14:17:00.714Z,67.44
2023-01-11T14:19:46.650Z,67.55
2023-01-11T14:22:18.858Z,67.55
2023-01-11T14:25:09.656Z,67.68
2023-01-11T14:28:17.695Z,67.76
2023-01-11T14:31:15.490Z,67.94
2023-01-11T14:34:01.346Z,68.01
2023-01-11T14:36:42.820Z,68.19
2023-01-11T14:39:32.783Z,68.42
2023-01-11T14:42:31.917Z,68.18
2023-01-11T14:45:14.315Z,68.45
2023-01-11T14:47:53.262Z,68.49
2023-01-11T14:50:27.600Z,68.54
2023-01-11T14:52:57.381Z,68.58
2023-01-11T14:55:28.090Z,68.68
2023-01-11T14:57:56.080Z,68.59
2023-01-11T15:00:22.946Z,68.47
2023-01-11T15:03:05.198Z,68.71
2023-01-11T15:05:32.872Z,68.44
2023-01-11T15:08:15.278Z,68.63
2023-01-11T15:10:51.459Z,68.51
2023-01-11T15:13:39.947Z,68.36
2023-01-11T15:16:37.368Z,68.32
2023-01-11T15:19:06.107Z,68.36
2023-01-11T15:21:32.932Z,68.34
2023-01-11T15:23:59.719Z,68.46
2023-01-11T15:26:26.743Z,68.22
2023-01-11T15:28:58.285Z,68.58
2023-01-11T15:31:36.959Z,68.49
2023-01-11T15:34:25.380Z,68.49
2023-01-11T15:37:05.532Z,68.51
2023-01-11T15:39:44.478Z,68.58
2023-01-11T15:42:17.238Z,68.91
2023-01-11T15:45:02.507Z,68.71
2023-01-11T15:48:06.894Z,68.74
2023-01-11T15:50:43.988Z,68.47
2023-01-11T15:53:49.174Z,68.66
2023-01-11T15:56:18.971Z,69.20
2023-01-11T15:59:13.196Z,69.07
2023-01-11T16:02:14.774Z,69.31
2023-01-11T16:05:16.555Z,69.31
2023-01-11T16:07:59.920Z,69.40
2023-01-11T16:10:42.881Z,69.54
2023-01-11T16:13:30.539Z,69.35
2023-01-11T16:16:31.181Z,69.37
2023-01-11T16:19:08.648Z,69.36
2023-01-11T16:21:47.561Z,69.32
2023-01-11T16:24:27.668Z,69.60
2023-01-11T16:27:02.288Z,69.54
2023-01-11T16:29:31.083Z,69.58
2023-01-11T16:32:06.180Z,69.75
2023-01-11T16:34:47.202Z,69.39
2023-01-11T16:37:28.713Z,69.51
2023-01-11T16:40:09.109Z,69.34
2023-01-11T16:42:41.758Z,69.41
2023-01-11T16:45:13.967Z,69.36
2023-01-11T16:47:41.434Z,69.31
2023-01-11T16:50:14.337Z,69.40
2023-01-11T16:52:45.544Z,69.59
2023-01-11T16:55:37.901Z,69.50
2023-01-11T16:58:22.630Z,69.75
2023-01-11T17:01:00.077Z,69.46
2023-01-11T17:03:31.759Z,69.69
2023-01-11T17:06:09.975Z,69.96
2023-01-11T17:08:41.715Z,69.87
2023-01-11T17:11:35.337Z,69.87
2023-01-11T17:14:11.255Z,69.74
2023-01-11T17:16:41.750Z,69.76
2023-01-11T17:19:28.992Z,69.79
2023-01-11T17:22:24.032Z,70.35
2023-01-11T17:25:04.720Z,70.34
2023-01-11T17:27:42.519Z,70.79
2023-01-11T17:30:21.760Z,70.72
2023-01-11T17:32:49.755Z,70.75
2023-01-11T17:35:27.287Z,70.68
2023-01-11T17:38:00.047Z,70.81
2023-01-11T17:40:30.860Z,71.02
2023-01-11T17:43:23.791Z,70.95
2023-01-11T17:46:02.473Z,71.08
2023-01-11T17:48:29.604Z,70.73
2023-01-11T17:51:01.715Z,70.60
2023-01-11T17:53:35.614Z,70.48
2023-01-11T17:56:07.471Z,70.56
2023-01-11T17:58:37.970Z,70.84
2023-01-11T18:01:05.083Z,70.47
2023-01-11T18:03:51.262Z,70.95
2023-01-11T18:06:40.215Z,70.80
2023-01-11T18:09:26.583Z,70.92
2023-01-11T18:11:54.157Z,71.16
2023-01-11T18:14:29.873Z,71.00
2023-01-11T18:17:06.429Z,71.22
2023-01-11T18:19:41.529Z,71.22
2023-01-11T18:22:30.620Z,71.13
2023-01-11T18:25:00.709Z,71.48
2023-01-11T18:27:39.748Z,71.64
2023-01-11T18:30:11.685Z,71.65
2023-01-11T18:32:41.726Z,71.59
2023-01-11T18:35:18.910Z,71.73
2023-01-11T18:40:01.602Z,72.02
2023-01-11T18:42:31.040Z,72.26
2023-01-11T18:45:06.722Z,72.24
2023-01-11T18:47:33.826Z,72.55
2023-01-11T18:50:00.658Z,72.33
2023-01-11T18:52:28.039Z,72.49
2023-01-11T18:54:56.095Z,72.82
2023-01-11T18:57:24.417Z,72.75
2023-01-11T18:59:54.840Z,72.46
2023-01-11T19:02:26.178Z,72.68
2023-01-11T19:04:54.870Z,72.92
2023-01-11T19:07:21.930Z,72.80
2023-01-11T19:09:49.219Z,72.77
2023-01-11T19:12:16.349Z,72.92
2023-01-11T19:14:43.349Z,72.85
2023-01-11T19:17:10.605Z,72.98
2023-01-11T19:19:37.495Z,72.84
2023-01-11T19:22:04.772Z,73.07
2023-01-11T19:24:32.034Z,72.88
2023-01-11T19:26:59.223Z,73.11
2023-01-11T19:29:26.335Z,72.96
2023-01-11T19:31:53.518Z,73.16
2023-01-11T19:34:20.544Z,73.19
2023-01-11T19:36:48.931Z,73.55
2023-01-11T19:39:15.913Z,73.56
2023-01-11T19:41:55.042Z,73.72
2023-01-11T19:44:23.188Z,73.81
2023-01-11T19:46:57.068Z,73.56
2023-01-11T19:49:36.597Z,73.74
2023-01-11T19:52:03.800Z,73.68
2023-01-11T19:54:30.586Z,73.88
2023-01-11T19:56:57.589Z,73.84
2023-01-11T19:59:24.488Z,73.73
2023-01-11T20:01:51.267Z,73.95
2023-01-11T20:04:18.098Z,73.93
2023-01-11T20:06:55.349Z,74.05
2023-01-11T20:09:22.478Z,74.35
2023-01-11T20:11:49.632Z,74.24
2023-01-11T20:14:16.952Z,74.05
2023-01-11T20:16:43.941Z,74.37
2023-01-11T20:19:11.281Z,74.06
2023-01-11T20:21:38.345Z,74.21
2023-01-11T20:24:05.691Z,74.04
2023-01-11T20:26:34.330Z,74.32
2023-01-11T20:29:02.290Z,74.01
2023-01-11T20:31:31.927Z,74.11
2023-01-11T20:34:00.301Z,74.04
2023-01-11T20:36:27.406Z,74.04
2023-01-11T20:38:54.978Z,73.93
2023-01-11T20:41:42.134Z,73.51
2023-01-11T20:44:09.007Z,73.59
2023-01-11T20:46:38.104Z,73.38
2023-01-11T20:49:05.671Z,73.43
2023-01-11T20:51:32.504Z,73.57
2023-01-11T20:53:59.650Z,73.57
2023-01-11T20:56:26.787Z,73.84
2023-01-11T20:58:56.410Z,74.21
2023-01-11T21:01:26.671Z,74.12
2023-01-11T21:04:05.226Z,74.14
2023-01-11T21:06:32.951Z,73.97
2023-01-11T21:09:00.772Z,74.02
2023-01-11T21:11:28.348Z,74.22
2023-01-11T21:16:24.659Z,74.07
2023-01-11T21:18:56.398Z,74.52
2023-01-11T21:21:23.503Z,74.62
2023-01-11T21:23:55.191Z,74.52
2023-01-11T21:26:23.040Z,74.60
2023-01-11T21:28:52.721Z,74.72
2023-01-11T21:31:23.410Z,74.59
2023-01-11T21:33:53.436Z,74.41
2023-01-11T21:36:24.128Z,74.59
2023-01-11T21:38:51.615Z,74.63
2023-01-11T21:41:40.151Z,74.35
2023-01-11T21:44:08.755Z,74.27
2023-01-11T21:46:35.835Z,74.24
2023-01-11T21:49:02.966Z,74.21
2023-01-11T21:51:32.664Z,74.17
2023-01-11T21:53:59.487Z,74.13
2023-01-11T21:56:26.430Z,73.84
2023-01-11T21:58:53.597Z,73.93
2023-01-11T22:01:23.966Z,73.98
2023-01-11T22:03:50.948Z,73.74
2023-01-11T22:06:18.240Z,73.57
2023-01-11T22:08:46.137Z,74.23
2023-01-11T22:11:16.468Z,74.06
2023-01-11T22:13:43.440Z,74.13
2023-01-11T22:16:15.147Z,74.16
2023-01-11T22:18:42.657Z,73.95
2023-01-11T22:21:11.783Z,74.10
2023-01-11T22:23:39.158Z,74.15
2023-01-11T22:26:07.804Z,73.79
2023-01-11T22:28:57.484Z,73.98
2023-01-11T22:31:25.701Z,74.13
2023-01-11T22:33:52.504Z,74.01
2023-01-11T22:36:19.506Z,74.17
2023-01-11T22:38:47.275Z,73.92
2023-01-11T22:41:15.228Z,73.87
2023-01-11T22:43:43.325Z,73.56
2023-01-11T22:46:30.841Z,73.68
2023-01-11T22:48:59.092Z,73.40
2023-01-11T22:51:26.906Z,73.56
2023-01-11T22:53:54.404Z,73.79
2023-01-11T22:56:25.800Z,73.53
2023-01-11T22:58:53.482Z,73.54
2023-01-11T23:01:21.403Z,73.84
2023-01-11T23:03:48.714Z,73.81
2023-01-11T23:06:17.328Z,73.89
2023-01-11T23:08:44.408Z,73.84
2023-01-11T23:11:32.385Z,73.90
2023-01-11T23:14:02.164Z,74.10
2023-01-11T23:16:29.187Z,73.76
2023-01-11T23:18:56.336Z,73.96
2023-01-11T23:21:23.893Z,74.04
2023-01-11T23:23:50.849Z,74.23
2023-01-11T23:26:18.194Z,74.33
2023-01-11T23:28:46.119Z,74.06
2023-01-11T23:31:18.339Z,74.01
2023-01-11T23:33:49.657Z,74.01
2023-01-11T23:36:17.350Z,74.04
2023-01-11T23:38:44.797Z,74.15
2023-01-11T23:41:35.906Z,74.01
2023-01-11T23:44:04.985Z,74.26
2023-01-11T23:46:51.163Z,74.14
2023-01-11T23:49:18.049Z,74.41
2023-01-11T23:51:45.390Z,74.26
2023-01-11T23:54:12.429Z,74.30
2023-01-11T23:56:39.523Z,74.43
2023-01-11T23:59:06.941Z,74.67
